Time;durP1;ratioP1;P1;durP2;ratioP2;P2;SDS_P1;SDS_P2;PMS_P1;PMS_P2;Temp;Humidity;BMP_temperature;BMP_pressure;BME280_temperature;BME280_humidity;BME280_pressure;Samples;Min_cycle;Max_cycle;Signal;HPM_P1;HPM_P2
2022/11/19 00:01:35;;;;;;;2.70;1.33;;;;;;;;;;4994401;28;20423;-45
2022/11/19 00:04:00;;;;;;;3.65;2.28;;;;;;;;;;4999639;28;20064;-43
2022/11/19 00:06:26;;;;;;;3.42;1.50;;;;;;;;;;4995264;28;20025;-41
2022/11/19 00:08:53;;;;;;;3.20;1.80;;;;;;;;;;5000681;28;20045;-41
2022/11/19 00:14:05;;;;;;;2.65;1.60;;;;;;;;;;4999747;28;20061;-42
2022/11/19 00:16:31;;;;;;;3.80;2.08;;;;;;;;;;4998218;28;20026;-42
2022/11/19 00:18:56;;;;;;;4.45;2.33;;;;;;;;;;4995139;28;20053;-43
2022/11/19 00:21:22;;;;;;;6.63;3.17;;;;;;;;;;5000650;28;20398;-42
2022/11/19 00:23:47;;;;;;;2.03;1.50;;;;;;;;;;4996681;28;20030;-45
2022/11/19 00:26:13;;;;;;;2.55;1.75;;;;;;;;;;5006871;28;20079;-42
2022/11/19 00:28:40;;;;;;;3.92;1.80;;;;;;;;;;4994928;28;20091;-46
2022/11/19 00:31:13;;;;;;;1.92;1.40;;;;;;;;;;4996766;28;20042;-43
2022/11/19 00:33:40;;;;;;;6.53;1.88;;;;;;;;;;4997122;28;20111;-41
2022/11/19 00:36:08;;;;;;;2.20;1.48;;;;;;;;;;4997729;28;20038;-44
2022/11/19 00:38:34;;;;;;;3.40;1.25;;;;;;;;;;5004568;28;20443;-42
2022/11/19 00:41:00;;;;;;;2.97;1.60;;;;;;;;;;5001951;28;20149;-44
2022/11/19 00:46:10;;;;;;;2.15;1.58;;;;;;;;;;5005211;28;20489;-42
2022/11/19 00:48:35;;;;;;;2.55;1.58;;;;;;;;;;5003247;28;20038;-44
2022/11/19 00:51:01;;;;;;;3.00;1.55;;;;;;;;;;5002554;28;20478;-43
2022/11/19 00:53:27;;;;;;;3.72;1.80;;;;;;;;;;4994753;28;20045;-44
2022/11/19 00:55:52;;;;;;;4.03;1.50;;;;;;;;;;5001438;28;20521;-41
2022/11/19 00:58:18;;;;;;;1.83;1.52;;;;;;;;;;4995937;28;20053;-42
2022/11/19 01:00:44;;;;;;;3.40;1.88;;;;;;;;;;4990870;28;20097;-42
2022/11/19 01:03:09;;;;;;;3.55;1.50;;;;;;;;;;4996736;28;20034;-42
2022/11/19 01:05:35;;;;;;;5.15;1.80;;;;;;;;;;4996112;28;20034;-45
2022/11/19 01:08:00;;;;;;;3.13;1.88;;;;;;;;;;4998416;28;20046;-42
2022/11/19 01:10:25;;;;;;;2.35;1.45;;;;;;;;;;4997246;28;20081;-42
2022/11/19 01:15:34;;;;;;;2.50;1.73;;;;;;;;;;4998499;28;20029;-43
2022/11/19 01:18:00;;;;;;;2.97;1.70;;;;;;;;;;5000178;28;20045;-42
2022/11/19 01:20:25;;;;;;;3.25;1.63;;;;;;;;;;4995557;28;20054;-45
2022/11/19 01:22:50;;;;;;;4.22;1.27;;;;;;;;;;5000735;28;20038;-42
2022/11/19 01:25:16;;;;;;;3.72;1.60;;;;;;;;;;4999758;28;20125;-43
2022/11/19 01:27:41;;;;;;;4.15;1.30;;;;;;;;;;4999823;28;20046;-44
2022/11/19 01:30:07;;;;;;;2.22;1.30;;;;;;;;;;4996254;28;20050;-42
2022/11/19 01:32:33;;;;;;;4.57;1.40;;;;;;;;;;5003824;28;20522;-43
2022/11/19 01:34:58;;;;;;;3.30;1.58;;;;;;;;;;5003830;28;20040;-44
2022/11/19 01:37:23;;;;;;;2.35;1.45;;;;;;;;;;5005437;28;20498;-43
2022/11/19 01:39:49;;;;;;;2.45;1.17;;;;;;;;;;5009901;28;20827;-42
2022/11/19 01:45:33;;;;;;;2.25;1.40;;;;;;;;;;4986252;28;20034;-44
2022/11/19 01:48:05;;;;;;;4.18;1.48;;;;;;;;;;4988276;28;20073;-43
2022/11/19 01:50:34;;;;;;;2.83;1.13;;;;;;;;;;4985349;28;20055;-43
2022/11/19 01:52:59;;;;;;;1.67;1.40;;;;;;;;;;4978132;28;20042;-44
2022/11/19 01:55:26;;;;;;;1.15;1.05;;;;;;;;;;4988912;28;20152;-43
2022/11/19 01:58:00;;;;;;;5.28;1.23;;;;;;;;;;4985609;28;20387;-42
2022/11/19 02:00:26;;;;;;;2.50;1.48;;;;;;;;;;4977285;28;20043;-42
2022/11/19 02:02:52;;;;;;;2.78;1.33;;;;;;;;;;4987720;28;20113;-42
2022/11/19 02:05:17;;;;;;;3.53;1.45;;;;;;;;;;4970429;28;20043;-45
2022/11/19 02:07:51;;;;;;;3.30;1.52;;;;;;;;;;4981225;28;20411;-42
2022/11/19 02:10:17;;;;;;;2.40;1.10;;;;;;;;;;4977407;28;20039;-41
2022/11/19 02:13:13;;;;;;;1.60;1.30;;;;;;;;;;4985510;28;20108;-42
2022/11/19 02:16:03;;;;;;;6.07;1.25;;;;;;;;;;4989328;28;20100;-42
2022/11/19 02:18:51;;;;;;;1.77;0.98;;;;;;;;;;5000716;28;20402;-41
2022/11/19 02:21:31;;;;;;;1.20;0.80;;;;;;;;;;5001831;28;20038;-41
2022/11/19 02:24:24;;;;;;;2.28;0.82;;;;;;;;;;5005403;28;20145;-41
2022/11/19 02:27:05;;;;;;;3.35;0.98;;;;;;;;;;4997630;28;20085;-44
2022/11/19 02:29:30;;;;;;;2.58;0.95;;;;;;;;;;5000394;28;20490;-44
2022/11/19 02:31:56;;;;;;;1.73;0.85;;;;;;;;;;4998339;28;20045;-42
2022/11/19 02:34:31;;;;;;;2.78;0.88;;;;;;;;;;5003640;28;20065;-42
2022/11/19 02:37:15;;;;;;;1.05;0.95;;;;;;;;;;4998577;28;20445;-43
2022/11/19 02:39:51;;;;;;;2.03;1.10;;;;;;;;;;5004281;28;20532;-44
2022/11/19 02:42:27;;;;;;;3.45;0.90;;;;;;;;;;4999142;28;20026;-42
2022/11/19 02:44:58;;;;;;;1.10;1.00;;;;;;;;;;4998843;28;20022;-44
2022/11/19 02:47:31;;;;;;;1.45;0.90;;;;;;;;;;5007365;28;20500;-43
2022/11/19 02:50:02;;;;;;;1.15;1.05;;;;;;;;;;5001456;28;20022;-41
2022/11/19 02:52:28;;;;;;;3.45;1.00;;;;;;;;;;5001450;28;20598;-43
2022/11/19 02:54:53;;;;;;;0.85;0.85;;;;;;;;;;5004926;28;20100;-42
2022/11/19 02:57:19;;;;;;;3.40;1.13;;;;;;;;;;4993589;28;20097;-45
2022/11/19 03:05:56;;;;;;;1.98;1.00;;;;;;;;;;4993202;28;20046;-42
2022/11/19 03:08:22;;;;;;;1.02;0.73;;;;;;;;;;4995193;28;20116;-43
2022/11/19 03:11:21;;;;;;;1.25;1.00;;;;;;;;;;4998851;28;20121;-43
2022/11/19 03:16:47;;;;;;;1.42;1.00;;;;;;;;;;4996732;28;20076;-45
2022/11/19 03:19:55;;;;;;;1.25;0.88;;;;;;;;;;4998944;28;20053;-45
2022/11/19 03:22:55;;;;;;;3.95;0.90;;;;;;;;;;5001077;28;20045;-41
2022/11/19 03:25:27;;;;;;;1.35;1.00;;;;;;;;;;4999082;28;20403;-42
2022/11/19 03:27:57;;;;;;;4.13;1.07;;;;;;;;;;4991959;28;20046;-42
2022/11/19 03:30:23;;;;;;;1.65;1.10;;;;;;;;;;4998947;28;20084;-45
2022/11/19 03:33:04;;;;;;;2.67;1.10;;;;;;;;;;4992505;28;20046;-44
2022/11/19 03:35:36;;;;;;;2.92;0.82;;;;;;;;;;4994799;28;20050;-44
2022/11/19 03:38:05;;;;;;;3.03;0.90;;;;;;;;;;4990945;28;20062;-42
2022/11/19 03:40:33;;;;;;;1.00;0.80;;;;;;;;;;4994862;28;20121;-41
2022/11/19 03:43:01;;;;;;;1.65;1.15;;;;;;;;;;5005566;28;20494;-42
2022/11/19 03:45:31;;;;;;;1.40;0.95;;;;;;;;;;5001317;28;20037;-42
2022/11/19 03:47:59;;;;;;;1.15;0.90;;;;;;;;;;5002547;28;20418;-42
2022/11/19 03:50:34;;;;;;;4.68;1.10;;;;;;;;;;4997420;28;20026;-42
2022/11/19 03:52:59;;;;;;;1.50;1.02;;;;;;;;;;4993495;28;20046;-43
2022/11/19 03:55:31;;;;;;;1.40;1.00;;;;;;;;;;5007889;28;20180;-44
2022/11/19 03:58:04;;;;;;;;;;;;;;;;;;5000141;28;20064;-41
2022/11/19 04:00:29;;;;;;;6.00;1.45;;;;;;;;;;4999589;28;19975;-41
2022/11/19 04:02:55;;;;;;;2.80;1.45;;;;;;;;;;5008613;28;20494;-41
2022/11/19 04:05:21;;;;;;;6.95;1.00;;;;;;;;;;5000014;28;20069;-44
2022/11/19 04:07:46;;;;;;;1.65;1.02;;;;;;;;;;5000102;28;20132;-45
2022/11/19 04:10:11;;;;;;;3.17;1.05;;;;;;;;;;5004796;28;20037;-44
2022/11/19 04:12:37;;;;;;;2.40;1.25;;;;;;;;;;5007635;28;20513;-44
2022/11/19 04:15:02;;;;;;;1.02;1.00;;;;;;;;;;4999439;28;20049;-44
2022/11/19 04:17:28;;;;;;;1.85;1.08;;;;;;;;;;4998417;28;20044;-44
2022/11/19 04:19:53;;;;;;;1.85;1.17;;;;;;;;;;4996357;28;20053;-42
2022/11/19 04:22:18;;;;;;;2.53;1.13;;;;;;;;;;4998961;28;20057;-45
2022/11/19 04:24:44;;;;;;;1.10;1.00;;;;;;;;;;4997731;28;20121;-44
2022/11/19 04:27:09;;;;;;;4.20;1.30;;;;;;;;;;5006165;28;20909;-45
2022/11/19 04:29:34;;;;;;;2.95;1.25;;;;;;;;;;4999024;28;20126;-46
2022/11/19 04:32:00;;;;;;;2.25;1.00;;;;;;;;;;4998324;28;20050;-42
2022/11/19 04:34:25;;;;;;;1.50;1.00;;;;;;;;;;4996724;28;20048;-43
2022/11/19 04:36:50;;;;;;;3.55;1.25;;;;;;;;;;4998972;28;20018;-47
2022/11/19 04:39:16;;;;;;;3.05;1.30;;;;;;;;;;4999561;28;20383;-46
2022/11/19 04:41:41;;;;;;;2.70;1.23;;;;;;;;;;4995406;28;20061;-43
2022/11/19 04:44:06;;;;;;;4.97;1.30;;;;;;;;;;4999463;28;20502;-43
2022/11/19 04:46:32;;;;;;;2.13;1.60;;;;;;;;;;4996052;28;20048;-42
2022/11/19 04:48:57;;;;;;;2.45;1.23;;;;;;;;;;4999038;28;20042;-43
2022/11/19 04:51:23;;;;;;;4.15;1.08;;;;;;;;;;5003324;28;20169;-42
2022/11/19 04:53:49;;;;;;;1.30;0.95;;;;;;;;;;4999624;28;20038;-43
2022/11/19 04:56:14;;;;;;;2.28;1.33;;;;;;;;;;5000828;28;20033;-43
2022/11/19 04:58:40;;;;;;;2.10;1.10;;;;;;;;;;4992682;28;20225;-46
2022/11/19 05:01:05;;;;;;;3.85;1.30;;;;;;;;;;4993200;28;20038;-43
2022/11/19 05:03:31;;;;;;;4.88;1.52;;;;;;;;;;4991753;28;20087;-41
2022/11/19 05:05:56;;;;;;;1.55;1.25;;;;;;;;;;4993783;28;20483;-43
2022/11/19 05:08:22;;;;;;;2.13;1.42;;;;;;;;;;4994429;28;20042;-42
2022/11/19 05:10:47;;;;;;;2.22;1.73;;;;;;;;;;5004539;28;20562;-44
2022/11/19 05:13:12;;;;;;;3.95;1.13;;;;;;;;;;5000413;28;20065;-45
2022/11/19 05:15:38;;;;;;;2.60;1.52;;;;;;;;;;5004879;28;20113;-42
2022/11/19 05:18:03;;;;;;;1.25;1.15;;;;;;;;;;5009317;28;20565;-48
2022/11/19 05:20:29;;;;;;;3.08;0.98;;;;;;;;;;5002837;28;20602;-48
2022/11/19 05:22:54;;;;;;;2.85;1.50;;;;;;;;;;5015324;28;20511;-45
2022/11/19 05:25:19;;;;;;;2.58;1.15;;;;;;;;;;5004419;28;20164;-43
2022/11/19 05:27:45;;;;;;;4.72;1.33;;;;;;;;;;5003571;28;20041;-42
2022/11/19 05:30:10;;;;;;;4.28;1.83;;;;;;;;;;4997729;28;20030;-42
2022/11/19 05:32:36;;;;;;;3.10;1.33;;;;;;;;;;4996877;28;20395;-44
2022/11/19 05:35:03;;;;;;;4.18;1.38;;;;;;;;;;5006556;28;20026;-44
2022/11/19 05:37:28;;;;;;;1.88;1.10;;;;;;;;;;5003742;28;20549;-43
2022/11/19 05:39:53;;;;;;;2.55;1.27;;;;;;;;;;5007920;28;20042;-45
2022/11/19 05:42:19;;;;;;;3.97;1.10;;;;;;;;;;5006884;28;20566;-42
2022/11/19 05:44:44;;;;;;;2.38;1.30;;;;;;;;;;5004597;28;20414;-48
2022/11/19 05:47:09;;;;;;;4.60;1.52;;;;;;;;;;5003710;28;20030;-43
2022/11/19 05:49:35;;;;;;;4.55;1.17;;;;;;;;;;5008488;28;20044;-48
2022/11/19 05:52:00;;;;;;;3.15;1.52;;;;;;;;;;5013320;28;20030;-42
2022/11/19 05:54:26;;;;;;;2.30;1.10;;;;;;;;;;5005114;28;20045;-43
2022/11/19 05:56:51;;;;;;;1.52;1.15;;;;;;;;;;5008369;28;20034;-45
2022/11/19 05:59:16;;;;;;;5.82;1.63;;;;;;;;;;4994074;28;20503;-43
2022/11/19 06:01:42;;;;;;;3.55;1.27;;;;;;;;;;5001032;28;20030;-41
2022/11/19 06:04:09;;;;;;;1.35;0.90;;;;;;;;;;4997047;28;20042;-43
2022/11/19 06:06:34;;;;;;;2.35;1.30;;;;;;;;;;4995977;28;20041;-42
2022/11/19 06:09:00;;;;;;;1.33;1.15;;;;;;;;;;5000918;28;20042;-42
2022/11/19 06:14:09;;;;;;;1.60;1.05;;;;;;;;;;4999703;28;20521;-42
2022/11/19 06:16:34;;;;;;;0.98;0.93;;;;;;;;;;5009811;28;20030;-42
2022/11/19 06:19:00;;;;;;;2.30;1.30;;;;;;;;;;5008775;28;20057;-42
2022/11/19 06:21:25;;;;;;;1.58;1.02;;;;;;;;;;5006367;28;20108;-48
2022/11/19 06:23:50;;;;;;;3.83;1.20;;;;;;;;;;5008829;28;20042;-41
2022/11/19 06:26:27;;;;;;;2.25;1.45;;;;;;;;;;4997136;28;20462;-49
2022/11/19 06:28:52;;;;;;;1.35;1.23;;;;;;;;;;4997561;28;20043;-45
2022/11/19 06:31:18;;;;;;;3.97;1.77;;;;;;;;;;5005624;28;20726;-44
2022/11/19 06:33:44;;;;;;;1.90;1.17;;;;;;;;;;5002889;28;20046;-42
2022/11/19 06:36:09;;;;;;;2.22;1.50;;;;;;;;;;4998069;28;20040;-43
2022/11/19 06:38:35;;;;;;;1.20;1.10;;;;;;;;;;4998313;28;20560;-43
2022/11/19 06:41:00;;;;;;;3.53;1.73;;;;;;;;;;5009270;28;20173;-41
2022/11/19 06:43:26;;;;;;;4.88;1.38;;;;;;;;;;4997050;28;20030;-42
2022/11/19 06:45:51;;;;;;;2.65;1.42;;;;;;;;;;5003715;28;20061;-49
2022/11/19 06:48:17;;;;;;;2.17;1.40;;;;;;;;;;4993005;28;20541;-42
2022/11/19 06:50:44;;;;;;;2.55;1.25;;;;;;;;;;5005628;28;20042;-41
2022/11/19 06:53:10;;;;;;;4.43;1.80;;;;;;;;;;5006070;28;20045;-42
2022/11/19 06:55:35;;;;;;;3.70;1.52;;;;;;;;;;5002822;28;20026;-44
2022/11/19 06:58:05;;;;;;;4.88;1.67;;;;;;;;;;4994756;28;20042;-44
2022/11/19 07:00:31;;;;;;;1.60;1.50;;;;;;;;;;5000386;28;20054;-42
2022/11/19 07:02:56;;;;;;;3.15;1.63;;;;;;;;;;5001188;28;20045;-42
2022/11/19 07:05:22;;;;;;;7.43;2.50;;;;;;;;;;5001124;28;20061;-42
2022/11/19 07:07:47;;;;;;;2.38;1.50;;;;;;;;;;4997223;28;20097;-43
2022/11/19 07:10:13;;;;;;;6.60;1.92;;;;;;;;;;4994133;28;20029;-43
2022/11/19 07:12:38;;;;;;;2.97;1.35;;;;;;;;;;4996559;28;20519;-41
2022/11/19 07:15:04;;;;;;;4.80;1.45;;;;;;;;;;5002692;28;20030;-45
2022/11/19 07:17:29;;;;;;;5.20;1.50;;;;;;;;;;4995477;28;20089;-42
2022/11/19 07:19:55;;;;;;;1.40;1.20;;;;;;;;;;4997774;28;20045;-45
2022/11/19 07:22:20;;;;;;;5.95;1.38;;;;;;;;;;5002567;28;20034;-41
2022/11/19 07:24:45;;;;;;;6.88;1.77;;;;;;;;;;5010934;28;20026;-42
2022/11/19 07:27:11;;;;;;;3.47;1.30;;;;;;;;;;5002532;28;20438;-42
2022/11/19 07:29:37;;;;;;;3.95;1.38;;;;;;;;;;4997158;28;20169;-42
2022/11/19 07:32:04;;;;;;;1.08;0.90;;;;;;;;;;5009116;28;20042;-43
2022/11/19 07:34:29;;;;;;;3.40;1.67;;;;;;;;;;5003171;28;20087;-43
2022/11/19 07:36:55;;;;;;;7.93;1.40;;;;;;;;;;5000558;28;20034;-44
2022/11/19 07:39:20;;;;;;;8.90;2.33;;;;;;;;;;5001507;28;20503;-43
2022/11/19 07:44:29;;;;;;;5.47;1.55;;;;;;;;;;4998891;28;20061;-45
2022/11/19 07:46:54;;;;;;;1.75;1.05;;;;;;;;;;5002292;28;20471;-45
2022/11/19 07:49:20;;;;;;;2.28;1.70;;;;;;;;;;5003580;28;20068;-43
2022/11/19 07:51:45;;;;;;;2.10;1.40;;;;;;;;;;4993829;28;20030;-42
2022/11/19 07:54:11;;;;;;;4.20;1.63;;;;;;;;;;5004127;28;20050;-43
2022/11/19 07:56:36;;;;;;;6.00;1.30;;;;;;;;;;5001042;28;20030;-44
2022/11/19 07:59:02;;;;;;;5.65;1.15;;;;;;;;;;5007060;28;20030;-46
2022/11/19 08:01:28;;;;;;;3.15;1.02;;;;;;;;;;5000812;28;20111;-42
2022/11/19 08:03:54;;;;;;;20.85;2.08;;;;;;;;;;5000373;28;20065;-44
2022/11/19 08:06:22;;;;;;;6.75;1.85;;;;;;;;;;4998372;28;20125;-45
2022/11/19 08:08:47;;;;;;;6.15;1.20;;;;;;;;;;4994424;28;20034;-42
2022/11/19 08:11:14;;;;;;;4.10;1.50;;;;;;;;;;4996567;28;20033;-43
2022/11/19 08:13:40;;;;;;;3.13;1.13;;;;;;;;;;5008415;28;20478;-44
2022/11/19 08:16:11;;;;;;;4.75;1.58;;;;;;;;;;4995025;28;20057;-43
2022/11/19 08:18:37;;;;;;;3.38;1.50;;;;;;;;;;4997037;28;20034;-42
2022/11/19 08:21:08;;;;;;;2.97;1.58;;;;;;;;;;4997699;28;20038;-43
2022/11/19 08:23:35;;;;;;;1.63;1.10;;;;;;;;;;4993347;28;20034;-42
2022/11/19 08:26:00;;;;;;;4.97;1.50;;;;;;;;;;4997058;28;20427;-43
2022/11/19 08:28:27;;;;;;;3.13;1.20;;;;;;;;;;4991640;28;20143;-46
2022/11/19 08:30:53;;;;;;;1.80;1.23;;;;;;;;;;5002751;28;20662;-44
2022/11/19 08:33:19;;;;;;;2.83;1.40;;;;;;;;;;4993993;28;20141;-43
2022/11/19 08:35:44;;;;;;;3.05;1.30;;;;;;;;;;4997536;28;20023;-42
2022/11/19 08:38:09;;;;;;;27.10;2.75;;;;;;;;;;4995067;28;20302;-48
2022/11/19 08:40:35;;;;;;;3.38;1.27;;;;;;;;;;4999134;28;20110;-43
2022/11/19 08:43:00;;;;;;;3.67;1.30;;;;;;;;;;4999812;28;20031;-42
2022/11/19 08:45:35;;;;;;;4.65;1.23;;;;;;;;;;4999308;28;20044;-45
2022/11/19 08:48:04;;;;;;;1.73;1.20;;;;;;;;;;4991052;28;20380;-42
2022/11/19 08:50:30;;;;;;;3.42;1.23;;;;;;;;;;5000008;28;20478;-42
2022/11/19 08:53:01;;;;;;;2.00;1.30;;;;;;;;;;5003418;28;20062;-43
2022/11/19 08:55:28;;;;;;;5.03;1.05;;;;;;;;;;4995821;28;20054;-45
2022/11/19 08:58:05;;;;;;;2.78;1.15;;;;;;;;;;5001616;28;20590;-45
2022/11/19 09:00:32;;;;;;;5.97;1.25;;;;;;;;;;4992210;28;20139;-42
2022/11/19 09:02:58;;;;;;;3.72;1.55;;;;;;;;;;5000233;28;20030;-43
2022/11/19 09:05:24;;;;;;;1.73;1.23;;;;;;;;;;4995830;28;20527;-43
2022/11/19 09:07:49;;;;;;;4.05;1.40;;;;;;;;;;4996717;28;20030;-46
2022/11/19 09:10:16;;;;;;;4.68;1.00;;;;;;;;;;5003163;28;20037;-42
2022/11/19 09:12:41;;;;;;;4.38;1.50;;;;;;;;;;4998534;28;20037;-42
2022/11/19 09:15:07;;;;;;;5.82;1.75;;;;;;;;;;4992214;28;20049;-45
2022/11/19 09:17:33;;;;;;;3.75;1.48;;;;;;;;;;4993758;28;20041;-48
2022/11/19 09:19:58;;;;;;;3.67;1.55;;;;;;;;;;4997438;28;22340;-48
2022/11/19 09:22:24;;;;;;;2.35;1.55;;;;;;;;;;4996419;28;20057;-44
2022/11/19 09:24:49;;;;;;;5.22;1.75;;;;;;;;;;4997364;28;20061;-44
2022/11/19 09:27:14;;;;;;;2.78;1.10;;;;;;;;;;4998337;28;20088;-42
2022/11/19 09:29:40;;;;;;;3.22;1.42;;;;;;;;;;5002945;28;20034;-42
2022/11/19 09:32:05;;;;;;;2.45;1.10;;;;;;;;;;4994160;28;20030;-43
2022/11/19 09:34:30;;;;;;;2.38;1.55;;;;;;;;;;4994978;28;20857;-43
2022/11/19 09:36:57;;;;;;;2.20;1.33;;;;;;;;;;5001903;28;20471;-46
2022/11/19 09:39:22;;;;;;;7.72;1.42;;;;;;;;;;4992569;28;20571;-42
2022/11/19 09:42:00;;;;;;;3.22;1.40;;;;;;;;;;4999121;28;20036;-45
2022/11/19 09:45:03;;;;;;;2.95;1.30;;;;;;;;;;4994134;28;20069;-43
2022/11/19 09:48:14;;;;;;;2.85;1.23;;;;;;;;;;4992154;28;20092;-45
2022/11/19 09:51:08;;;;;;;1.92;1.10;;;;;;;;;;4955967;28;20051;-46
2022/11/19 09:53:47;;;;;;;1.70;1.35;;;;;;;;;;4954604;28;20058;-43
2022/11/19 09:56:20;;;;;;;2.33;1.20;;;;;;;;;;4957051;28;20612;-43
2022/11/19 09:58:45;;;;;;;5.78;1.30;;;;;;;;;;4965373;28;20038;-45
2022/11/19 10:01:16;;;;;;;2.47;1.40;;;;;;;;;;4959278;28;20035;-46
2022/11/19 10:03:53;;;;;;;2.97;1.33;;;;;;;;;;4962439;28;20042;-42
2022/11/19 10:06:48;;;;;;;2.25;0.90;;;;;;;;;;4963856;28;20134;-44
2022/11/19 10:09:38;;;;;;;2.95;1.52;;;;;;;;;;4928480;28;20531;-45
2022/11/19 10:12:18;;;;;;;2.75;1.40;;;;;;;;;;4953002;28;20039;-45
2022/11/19 10:15:04;;;;;;;4.20;1.33;;;;;;;;;;4943973;28;20663;-43
2022/11/19 10:17:39;;;;;;;4.28;1.27;;;;;;;;;;4944255;28;20062;-46
2022/11/19 10:20:07;;;;;;;1.40;1.00;;;;;;;;;;4946649;28;20046;-45
2022/11/19 10:22:50;;;;;;;2.75;1.42;;;;;;;;;;4947511;28;20468;-43
2022/11/19 10:25:19;;;;;;;3.35;1.20;;;;;;;;;;4945094;28;20035;-46
2022/11/19 10:28:07;;;;;;;1.45;1.30;;;;;;;;;;4941043;28;20039;-48
2022/11/19 10:30:33;;;;;;;2.28;1.30;;;;;;;;;;4941571;29;20035;-44
2022/11/19 10:33:08;;;;;;;1.27;1.13;;;;;;;;;;4939917;29;20492;-44
2022/11/19 10:35:43;;;;;;;2.33;1.27;;;;;;;;;;4942589;28;20606;-44
2022/11/19 10:38:37;;;;;;;3.20;1.20;;;;;;;;;;4934611;29;20042;-45
2022/11/19 10:41:12;;;;;;;1.42;1.00;;;;;;;;;;4921719;29;20040;-46
2022/11/19 10:43:45;;;;;;;2.55;1.15;;;;;;;;;;4924571;29;20043;-44
2022/11/19 10:46:13;;;;;;;1.98;1.30;;;;;;;;;;4941357;28;20077;-43
2022/11/19 10:48:42;;;;;;;2.08;1.08;;;;;;;;;;4955575;28;20031;-43
2022/11/19 10:51:13;;;;;;;5.07;1.10;;;;;;;;;;4956965;28;20072;-44
2022/11/19 10:53:40;;;;;;;1.63;0.98;;;;;;;;;;4964579;28;20487;-44
2022/11/19 10:56:13;;;;;;;3.25;1.27;;;;;;;;;;4963541;28;20034;-44
2022/11/19 10:58:53;;;;;;;3.15;1.10;;;;;;;;;;4964198;28;20071;-43
2022/11/19 11:01:30;;;;;;;4.47;1.33;;;;;;;;;;4961603;28;20043;-43
2022/11/19 11:04:10;;;;;;;2.08;1.23;;;;;;;;;;4957375;28;21039;-45
2022/11/19 11:06:48;;;;;;;3.75;1.40;;;;;;;;;;4955642;28;20038;-45
2022/11/19 11:09:42;;;;;;;1.13;1.02;;;;;;;;;;4956949;28;20668;-44
2022/11/19 11:15:22;;;;;;;1.60;1.10;;;;;;;;;;4958206;28;20098;-46
2022/11/19 11:18:02;;;;;;;4.35;0.93;;;;;;;;;;4977748;28;20050;-45
2022/11/19 11:20:29;;;;;;;1.48;1.38;;;;;;;;;;4991269;28;20038;-47
2022/11/19 11:23:08;;;;;;;4.35;1.60;;;;;;;;;;5002034;28;20026;-44
2022/11/19 11:25:35;;;;;;;2.15;1.02;;;;;;;;;;4996013;28;20047;-47
2022/11/19 11:28:19;;;;;;;2.42;1.00;;;;;;;;;;5017718;28;20064;-45
2022/11/19 11:30:54;;;;;;;3.22;1.40;;;;;;;;;;5000038;28;20073;-44
2022/11/19 11:33:28;;;;;;;2.13;1.10;;;;;;;;;;5001853;28;20069;-43
2022/11/19 11:35:57;;;;;;;3.80;1.80;;;;;;;;;;4999994;28;20406;-47
2022/11/19 11:38:25;;;;;;;1.02;0.95;;;;;;;;;;5007000;28;20083;-51
2022/11/19 11:40:59;;;;;;;3.45;1.30;;;;;;;;;;5006292;28;20052;-46
2022/11/19 11:43:26;;;;;;;2.45;1.35;;;;;;;;;;5006726;28;20037;-46
2022/11/19 11:46:00;;;;;;;4.30;1.38;;;;;;;;;;5004359;28;20042;-45
2022/11/19 11:48:32;;;;;;;2.80;1.00;;;;;;;;;;5004953;28;20430;-44
2022/11/19 11:50:57;;;;;;;2.17;1.27;;;;;;;;;;5003213;28;20057;-44
2022/11/19 11:53:31;;;;;;;2.40;1.40;;;;;;;;;;5000523;28;20410;-46
2022/11/19 11:55:59;;;;;;;1.88;1.27;;;;;;;;;;5005249;28;20050;-47
2022/11/19 11:58:30;;;;;;;2.67;1.40;;;;;;;;;;4994058;28;20022;-51
2022/11/19 12:01:10;;;;;;;1.90;1.25;;;;;;;;;;5001932;28;20507;-49
2022/11/19 12:03:50;;;;;;;3.28;2.28;;;;;;;;;;4994190;28;20045;-45
2022/11/19 12:06:17;;;;;;;2.28;1.67;;;;;;;;;;4998021;28;20470;-45
2022/11/19 12:09:08;;;;;;;2.05;1.40;;;;;;;;;;4998621;28;20445;-48
2022/11/19 12:12:28;;;;;;;4.18;1.50;;;;;;;;;;4998810;28;20126;-45
2022/11/19 12:15:13;;;;;;;2.55;1.33;;;;;;;;;;4992021;28;20042;-44
2022/11/19 12:17:53;;;;;;;5.55;1.52;;;;;;;;;;4996404;28;20105;-44
2022/11/19 12:20:32;;;;;;;2.35;1.63;;;;;;;;;;4991800;28;20141;-47
2022/11/19 12:23:04;;;;;;;2.55;1.67;;;;;;;;;;4984485;28;20066;-47
2022/11/19 12:25:40;;;;;;;4.00;1.58;;;;;;;;;;4994590;28;20068;-49
2022/11/19 12:28:20;;;;;;;1.67;1.10;;;;;;;;;;4995105;28;20557;-44
2022/11/19 12:31:05;;;;;;;3.67;1.50;;;;;;;;;;5002876;28;20050;-46
2022/11/19 12:33:45;;;;;;;3.92;1.30;;;;;;;;;;4998650;28;20439;-42
2022/11/19 12:36:39;;;;;;;1.40;1.27;;;;;;;;;;4995782;28;20045;-46
2022/11/19 12:39:26;;;;;;;3.50;2.20;;;;;;;;;;4988907;28;20050;-47
2022/11/19 12:42:13;;;;;;;6.00;2.55;;;;;;;;;;4993406;28;20877;-45
2022/11/19 12:45:20;;;;;;;4.97;3.50;;;;;;;;;;4995697;28;20046;-50
2022/11/19 12:48:27;;;;;;;2.15;1.52;;;;;;;;;;4992226;28;20041;-45
2022/11/19 12:50:52;;;;;;;5.10;1.55;;;;;;;;;;4996233;28;20066;-44
2022/11/19 12:53:27;;;;;;;1.73;1.33;;;;;;;;;;4998727;28;20130;-47
2022/11/19 12:56:02;;;;;;;1.85;1.15;;;;;;;;;;5006565;28;20255;-51
2022/11/19 12:58:41;;;;;;;2.78;1.17;;;;;;;;;;4992439;28;20088;-46
2022/11/19 13:01:21;;;;;;;1.77;1.00;;;;;;;;;;4995544;28;20046;-44
2022/11/19 13:04:07;;;;;;;2.25;1.35;;;;;;;;;;4996687;28;20089;-47
2022/11/19 13:06:41;;;;;;;6.10;2.38;;;;;;;;;;4981701;28;20050;-50
2022/11/19 13:09:17;;;;;;;5.75;1.92;;;;;;;;;;4984312;28;20046;-45
2022/11/19 13:11:48;;;;;;;2.70;1.50;;;;;;;;;;4980491;28;20043;-43
2022/11/19 13:14:43;;;;;;;3.08;1.90;;;;;;;;;;4981959;28;20633;-46
2022/11/19 13:17:22;;;;;;;3.45;1.48;;;;;;;;;;4982668;28;20572;-44
2022/11/19 13:19:55;;;;;;;2.50;1.35;;;;;;;;;;4983877;28;20121;-49
2022/11/19 13:22:45;;;;;;;1.48;1.30;;;;;;;;;;4977666;28;20067;-52
2022/11/19 13:25:33;;;;;;;3.83;1.40;;;;;;;;;;4979848;28;20122;-43
2022/11/19 13:28:02;;;;;;;4.15;1.52;;;;;;;;;;4983933;28;20041;-47
2022/11/19 13:30:30;;;;;;;3.22;1.35;;;;;;;;;;4985728;28;20057;-44
2022/11/19 13:33:04;;;;;;;6.07;1.60;;;;;;;;;;4986856;28;20050;-44
2022/11/19 13:35:51;;;;;;;1.58;1.25;;;;;;;;;;4981670;28;20066;-50
2022/11/19 13:38:35;;;;;;;2.65;1.58;;;;;;;;;;4983644;28;20068;-46
2022/11/19 13:41:11;;;;;;;2.67;1.50;;;;;;;;;;4981369;28;20627;-46
2022/11/19 13:46:31;;;;;;;3.13;1.85;;;;;;;;;;5005340;28;20497;-46
2022/11/19 13:49:41;;;;;;;1.73;1.30;;;;;;;;;;4996560;28;20046;-46
2022/11/19 13:52:09;;;;;;;2.97;1.10;;;;;;;;;;4990686;28;20047;-45
2022/11/19 13:54:37;;;;;;;3.65;1.27;;;;;;;;;;4994049;28;20073;-48
2022/11/19 13:57:04;;;;;;;2.35;1.88;;;;;;;;;;4995214;28;20030;-46
2022/11/19 13:59:44;;;;;;;1.70;1.20;;;;;;;;;;4997868;28;20034;-45
2022/11/19 14:02:15;;;;;;;1.58;1.10;;;;;;;;;;4999738;28;20030;-49
2022/11/19 14:04:56;;;;;;;1.05;0.80;;;;;;;;;;5003839;28;20046;-47
2022/11/19 14:07:42;;;;;;;4.28;1.40;;;;;;;;;;5003499;28;20042;-49
2022/11/19 14:10:19;;;;;;;4.95;2.20;;;;;;;;;;4997206;28;20046;-47
2022/11/19 14:12:56;;;;;;;3.08;1.33;;;;;;;;;;4997707;28;20037;-49
2022/11/19 14:27:21;;;;;;;6.15;1.20;;;;;;;;;;4995065;28;20049;-46
2022/11/19 14:29:47;;;;;;;2.03;1.30;;;;;;;;;;5001986;28;20113;-49
2022/11/19 14:32:12;;;;;;;1.60;1.30;;;;;;;;;;5000561;28;20121;-46
2022/11/19 14:34:40;;;;;;;2.53;1.33;;;;;;;;;;4999597;28;20403;-49
2022/11/19 14:37:18;;;;;;;1.40;1.20;;;;;;;;;;5000038;28;20368;-46
2022/11/19 14:39:49;;;;;;;4.15;1.15;;;;;;;;;;5003496;28;20046;-50
2022/11/19 14:42:21;;;;;;;7.50;2.10;;;;;;;;;;4997423;28;20052;-46
2022/11/19 14:45:10;;;;;;;1.33;0.93;;;;;;;;;;5005979;28;20108;-49
2022/11/19 14:47:41;;;;;;;2.58;1.00;;;;;;;;;;4990768;28;20124;-45
2022/11/19 14:50:24;;;;;;;1.75;1.20;;;;;;;;;;5004032;28;20036;-49
2022/11/19 14:52:52;;;;;;;3.28;1.52;;;;;;;;;;4997962;28;20030;-47
2022/11/19 14:55:21;;;;;;;3.63;1.50;;;;;;;;;;5000015;28;20049;-46
2022/11/19 14:58:18;;;;;;;5.53;1.42;;;;;;;;;;4998939;28;20030;-47
2022/11/19 15:00:44;;;;;;;2.92;1.33;;;;;;;;;;5000518;28;20045;-45
2022/11/19 15:03:29;;;;;;;4.18;1.45;;;;;;;;;;4997489;28;20454;-45
2022/11/19 15:05:55;;;;;;;2.35;1.20;;;;;;;;;;4998112;28;20138;-50
2022/11/19 15:08:23;;;;;;;8.57;1.40;;;;;;;;;;4998172;28;20141;-46
2022/11/19 15:11:00;;;;;;;4.40;1.83;;;;;;;;;;5004625;28;20042;-48
2022/11/19 15:13:27;;;;;;;4.22;1.95;;;;;;;;;;5005165;28;20037;-49
2022/11/19 15:16:04;;;;;;;6.32;1.42;;;;;;;;;;5004560;28;20491;-50
2022/11/19 15:18:32;;;;;;;1.73;1.50;;;;;;;;;;5004529;28;20040;-52
2022/11/19 15:21:16;;;;;;;1.38;1.25;;;;;;;;;;4998584;28;20062;-50
2022/11/19 15:24:06;;;;;;;2.33;1.00;;;;;;;;;;5000774;28;20387;-49
2022/11/19 15:26:48;;;;;;;2.80;1.13;;;;;;;;;;5001326;28;20041;-49
2022/11/19 15:29:36;;;;;;;2.35;1.27;;;;;;;;;;4998785;28;20074;-50
2022/11/19 15:32:11;;;;;;;1.48;0.98;;;;;;;;;;5000545;28;20100;-48
2022/11/19 15:34:41;;;;;;;3.55;1.23;;;;;;;;;;4993726;28;20038;-47
2022/11/19 15:37:11;;;;;;;2.38;1.58;;;;;;;;;;4999156;28;20030;-51
2022/11/19 15:39:41;;;;;;;2.53;1.23;;;;;;;;;;4998019;28;20038;-46
2022/11/19 15:42:13;;;;;;;8.32;1.85;;;;;;;;;;5000155;28;20109;-48
2022/11/19 15:44:42;;;;;;;;;;;;;;;;;;4996325;28;20046;-45
2022/11/19 15:47:19;;;;;;;2.15;1.40;;;;;;;;;;4997219;28;20363;-46
2022/11/19 15:49:45;;;;;;;2.45;1.40;;;;;;;;;;5005475;28;20134;-44
2022/11/19 15:52:13;;;;;;;3.80;1.63;;;;;;;;;;4999879;28;20487;-46